INFORMACIÓN METAR y TAF
METAR FOR SBFN
ADDS - METARS form results

(0348 UTC 17 October 2019)
Data provider http://aviationweather.gov/metar/data/
 
Forecast for: SBFN (FERNANDO DE NORO, BR)
Text: TAF SBFN 162200Z 1700/1712 14015KT 8000 SHRA SCT018 FEW025TCU TN26/1708Z TX28/1712Z RMK PAY
Forecast period: 0000 to 1200 UTC 17 October 2019
Forecast type: FROM: standard forecast or significant change
Winds: from the SE (140 degrees) at 17 MPH (15 knots; 7.7 m/s)
Visibility: 5 miles (8 km)
Ceiling: at least 12,000 feet AGL
Clouds: scattered clouds at 1800 feet AGL
few clouds at 2500 feet AGL
Weather: SHRA  (rain showers)

 MAPA DE AEROPUERTO

 INFORMACIÓN DE PISTA
Pista 12 Longitud 6053 ft Ancho 148 ft
Elevación 0 ft Umbral desplazado 0 ft Rumbo de pista 0
Pista 30 Longitud 6053 ft Ancho 148 ft
Elevación 0 ft Umbral desplazado 0 ft Rumbo de pista 0

 FRECUANCIAS DEL AEROPUERTO
Tipo AFIS Nombre NORONHA RD Frecuencia 125.9 MHZ

 RADIO AYUDAS DEL AEROPUERTO
Tipo VOR-DME Nombre Fernando Frecuencia 113700 KHZ
Tipo NDB Nombre Noronha Frecuencia 300 KHZ



Powered by Virtual Airlines Manager [v2.6.2]